sensor_id;sensor_type;location;lat;lon;timestamp;P1;durP1;ratioP1;P2;durP2;ratioP2
41711;SDS011;27399;51.516;13.670;2022-10-17T00:00:24;20.45;;;3.30;;
41711;SDS011;27399;51.516;13.670;2022-10-17T00:02:50;20.73;;;3.60;;
41711;SDS011;27399;51.516;13.670;2022-10-17T00:05:16;15.35;;;3.22;;
41711;SDS011;27399;51.516;13.670;2022-10-17T00:07:41;18.40;;;3.45;;
41711;SDS011;27399;51.516;13.670;2022-10-17T00:10:07;29.73;;;3.33;;
41711;SDS011;27399;51.516;13.670;2022-10-17T00:12:33;24.98;;;3.42;;
41711;SDS011;27399;51.516;13.670;2022-10-17T00:14:59;6.13;;;2.58;;
41711;SDS011;27399;51.516;13.670;2022-10-17T00:17:26;17.67;;;3.58;;
41711;SDS011;27399;51.516;13.670;2022-10-17T00:19:51;10.50;;;2.70;;
41711;SDS011;27399;51.516;13.670;2022-10-17T00:22:17;10.10;;;3.78;;
41711;SDS011;27399;51.516;13.670;2022-10-17T00:24:43;37.35;;;4.20;;
41711;SDS011;27399;51.516;13.670;2022-10-17T00:27:08;23.23;;;3.45;;
41711;SDS011;27399;51.516;13.670;2022-10-17T00:29:34;17.08;;;3.28;;
41711;SDS011;27399;51.516;13.670;2022-10-17T00:32:00;29.02;;;3.55;;
41711;SDS011;27399;51.516;13.670;2022-10-17T00:34:27;18.50;;;3.60;;
41711;SDS011;27399;51.516;13.670;2022-10-17T00:36:53;18.95;;;3.35;;
41711;SDS011;27399;51.516;13.670;2022-10-17T00:39:19;38.53;;;4.85;;
41711;SDS011;27399;51.516;13.670;2022-10-17T00:41:44;19.48;;;3.17;;
41711;SDS011;27399;51.516;13.670;2022-10-17T00:46:58;16.67;;;2.92;;
41711;SDS011;27399;51.516;13.670;2022-10-17T00:49:27;24.35;;;3.95;;
41711;SDS011;27399;51.516;13.670;2022-10-17T00:51:56;18.02;;;3.67;;
41711;SDS011;27399;51.516;13.670;2022-10-17T00:54:25;41.90;;;3.63;;
41711;SDS011;27399;51.516;13.670;2022-10-17T00:56:54;28.40;;;4.18;;
41711;SDS011;27399;51.516;13.670;2022-10-17T00:59:20;13.52;;;3.10;;
41711;SDS011;27399;51.516;13.670;2022-10-17T01:01:50;29.65;;;3.97;;
41711;SDS011;27399;51.516;13.670;2022-10-17T01:04:32;18.65;;;3.50;;
41711;SDS011;27399;51.516;13.670;2022-10-17T01:06:58;23.67;;;3.30;;
41711;SDS011;27399;51.516;13.670;2022-10-17T01:09:24;16.85;;;4.20;;
41711;SDS011;27399;51.516;13.670;2022-10-17T01:11:55;15.13;;;2.95;;
41711;SDS011;27399;51.516;13.670;2022-10-17T01:22:48;11.02;;;3.22;;
41711;SDS011;27399;51.516;13.670;2022-10-17T01:25:45;10.80;;;3.72;;
41711;SDS011;27399;51.516;13.670;2022-10-17T01:34:09;41.30;;;5.05;;
41711;SDS011;27399;51.516;13.670;2022-10-17T01:42:02;13.82;;;2.92;;
41711;SDS011;27399;51.516;13.670;2022-10-17T01:44:43;6.53;;;3.10;;
41711;SDS011;27399;51.516;13.670;2022-10-17T01:47:15;19.65;;;3.20;;
41711;SDS011;27399;51.516;13.670;2022-10-17T01:49:44;24.88;;;4.07;;
41711;SDS011;27399;51.516;13.670;2022-10-17T01:52:13;11.95;;;2.67;;
41711;SDS011;27399;51.516;13.670;2022-10-17T01:54:54;17.55;;;3.28;;
41711;SDS011;27399;51.516;13.670;2022-10-17T01:57:32;24.77;;;3.53;;
41711;SDS011;27399;51.516;13.670;2022-10-17T02:00:03;25.67;;;3.95;;
41711;SDS011;27399;51.516;13.670;2022-10-17T02:04:59;26.45;;;3.40;;
41711;SDS011;27399;51.516;13.670;2022-10-17T02:07:27;33.25;;;4.20;;
41711;SDS011;27399;51.516;13.670;2022-10-17T02:09:52;19.08;;;3.80;;
41711;SDS011;27399;51.516;13.670;2022-10-17T02:13:00;9.13;;;3.85;;
41711;SDS011;27399;51.516;13.670;2022-10-17T02:23:26;14.25;;;2.80;;
41711;SDS011;27399;51.516;13.670;2022-10-17T02:26:24;13.00;;;4.15;;
41711;SDS011;27399;51.516;13.670;2022-10-17T02:29:12;9.13;;;3.05;;
41711;SDS011;27399;51.516;13.670;2022-10-17T02:31:45;26.70;;;3.28;;
41711;SDS011;27399;51.516;13.670;2022-10-17T02:34:47;17.42;;;2.95;;
41711;SDS011;27399;51.516;13.670;2022-10-17T02:37:08;32.30;;;3.40;;
41711;SDS011;27399;51.516;13.670;2022-10-17T02:39:37;26.25;;;3.40;;
41711;SDS011;27399;51.516;13.670;2022-10-17T02:42:06;39.85;;;3.60;;
41711;SDS011;27399;51.516;13.670;2022-10-17T02:44:35;42.03;;;4.85;;
41711;SDS011;27399;51.516;13.670;2022-10-17T02:49:58;19.02;;;3.10;;
41711;SDS011;27399;51.516;13.670;2022-10-17T02:55:01;27.40;;;3.97;;
41711;SDS011;27399;51.516;13.670;2022-10-17T02:57:50;30.90;;;3.58;;
41711;SDS011;27399;51.516;13.670;2022-10-17T03:00:19;24.45;;;3.60;;
41711;SDS011;27399;51.516;13.670;2022-10-17T03:02:47;26.67;;;3.78;;
41711;SDS011;27399;51.516;13.670;2022-10-17T03:05:19;16.80;;;3.17;;
41711;SDS011;27399;51.516;13.670;2022-10-17T03:07:44;9.45;;;2.72;;
41711;SDS011;27399;51.516;13.670;2022-10-17T03:10:10;25.85;;;3.80;;
41711;SDS011;27399;51.516;13.670;2022-10-17T03:12:36;14.35;;;2.83;;
41711;SDS011;27399;51.516;13.670;2022-10-17T03:15:02;16.95;;;2.97;;
41711;SDS011;27399;51.516;13.670;2022-10-17T03:17:28;20.60;;;2.95;;
41711;SDS011;27399;51.516;13.670;2022-10-17T03:19:53;31.55;;;4.32;;
41711;SDS011;27399;51.516;13.670;2022-10-17T03:22:19;18.10;;;3.00;;
41711;SDS011;27399;51.516;13.670;2022-10-17T03:24:44;22.42;;;3.85;;
41711;SDS011;27399;51.516;13.670;2022-10-17T03:27:10;23.17;;;4.18;;
41711;SDS011;27399;51.516;13.670;2022-10-17T03:29:36;14.38;;;2.83;;
41711;SDS011;27399;51.516;13.670;2022-10-17T03:32:01;28.23;;;3.55;;
41711;SDS011;27399;51.516;13.670;2022-10-17T03:34:27;29.10;;;3.42;;
41711;SDS011;27399;51.516;13.670;2022-10-17T03:36:53;18.10;;;3.05;;
41711;SDS011;27399;51.516;13.670;2022-10-17T03:39:18;24.02;;;2.85;;
41711;SDS011;27399;51.516;13.670;2022-10-17T03:41:44;15.90;;;3.30;;
41711;SDS011;27399;51.516;13.670;2022-10-17T03:44:10;20.77;;;2.92;;
41711;SDS011;27399;51.516;13.670;2022-10-17T03:46:35;12.98;;;2.47;;
41711;SDS011;27399;51.516;13.670;2022-10-17T03:49:01;22.25;;;2.80;;
41711;SDS011;27399;51.516;13.670;2022-10-17T03:51:27;19.42;;;3.30;;
41711;SDS011;27399;51.516;13.670;2022-10-17T03:53:52;17.20;;;2.85;;
41711;SDS011;27399;51.516;13.670;2022-10-17T03:56:19;18.58;;;3.30;;
41711;SDS011;27399;51.516;13.670;2022-10-17T03:58:46;17.73;;;3.22;;
41711;SDS011;27399;51.516;13.670;2022-10-17T04:01:13;34.08;;;3.28;;
41711;SDS011;27399;51.516;13.670;2022-10-17T04:03:41;24.88;;;3.95;;
41711;SDS011;27399;51.516;13.670;2022-10-17T04:06:07;21.13;;;3.38;;
41711;SDS011;27399;51.516;13.670;2022-10-17T04:08:36;24.83;;;3.83;;
41711;SDS011;27399;51.516;13.670;2022-10-17T04:11:03;28.00;;;3.15;;
41711;SDS011;27399;51.516;13.670;2022-10-17T04:13:31;14.70;;;2.60;;
41711;SDS011;27399;51.516;13.670;2022-10-17T04:15:58;18.73;;;3.75;;
41711;SDS011;27399;51.516;13.670;2022-10-17T04:18:25;16.58;;;3.05;;
41711;SDS011;27399;51.516;13.670;2022-10-17T04:20:51;27.15;;;4.15;;
41711;SDS011;27399;51.516;13.670;2022-10-17T04:23:18;20.27;;;2.97;;
41711;SDS011;27399;51.516;13.670;2022-10-17T04:25:43;25.00;;;3.55;;
41711;SDS011;27399;51.516;13.670;2022-10-17T04:28:09;18.50;;;3.22;;
41711;SDS011;27399;51.516;13.670;2022-10-17T04:30:35;21.38;;;3.50;;
41711;SDS011;27399;51.516;13.670;2022-10-17T04:33:00;12.55;;;3.33;;
41711;SDS011;27399;51.516;13.670;2022-10-17T04:35:26;14.65;;;3.83;;
41711;SDS011;27399;51.516;13.670;2022-10-17T04:37:52;11.98;;;3.95;;
41711;SDS011;27399;51.516;13.670;2022-10-17T04:40:17;13.38;;;3.28;;
41711;SDS011;27399;51.516;13.670;2022-10-17T04:42:43;7.65;;;3.53;;
41711;SDS011;27399;51.516;13.670;2022-10-17T04:45:09;10.35;;;4.32;;
41711;SDS011;27399;51.516;13.670;2022-10-17T04:47:35;8.95;;;4.47;;
41711;SDS011;27399;51.516;13.670;2022-10-17T04:50:00;16.83;;;4.40;;
41711;SDS011;27399;51.516;13.670;2022-10-17T04:52:26;7.30;;;3.42;;
41711;SDS011;27399;51.516;13.670;2022-10-17T04:54:52;11.45;;;4.18;;
41711;SDS011;27399;51.516;13.670;2022-10-17T04:57:18;21.27;;;4.28;;
41711;SDS011;27399;51.516;13.670;2022-10-17T04:59:44;19.65;;;3.88;;
41711;SDS011;27399;51.516;13.670;2022-10-17T05:02:09;14.80;;;4.22;;
41711;SDS011;27399;51.516;13.670;2022-10-17T05:04:35;17.55;;;5.00;;
41711;SDS011;27399;51.516;13.670;2022-10-17T05:07:01;19.83;;;4.60;;
41711;SDS011;27399;51.516;13.670;2022-10-17T05:09:26;26.17;;;4.93;;
41711;SDS011;27399;51.516;13.670;2022-10-17T05:11:52;23.25;;;5.55;;
41711;SDS011;27399;51.516;13.670;2022-10-17T05:14:18;26.42;;;4.85;;
41711;SDS011;27399;51.516;13.670;2022-10-17T05:16:43;13.85;;;4.13;;
41711;SDS011;27399;51.516;13.670;2022-10-17T05:19:09;18.48;;;4.82;;
41711;SDS011;27399;51.516;13.670;2022-10-17T05:21:35;20.95;;;5.18;;
41711;SDS011;27399;51.516;13.670;2022-10-17T05:24:03;24.38;;;6.15;;
41711;SDS011;27399;51.516;13.670;2022-10-17T05:26:33;17.83;;;6.18;;
41711;SDS011;27399;51.516;13.670;2022-10-17T05:29:02;10.85;;;5.50;;
41711;SDS011;27399;51.516;13.670;2022-10-17T05:31:28;20.80;;;6.57;;
41711;SDS011;27399;51.516;13.670;2022-10-17T05:33:55;18.67;;;8.52;;
41711;SDS011;27399;51.516;13.670;2022-10-17T05:36:24;18.10;;;8.77;;
41711;SDS011;27399;51.516;13.670;2022-10-17T05:38:50;25.23;;;9.27;;
41711;SDS011;27399;51.516;13.670;2022-10-17T05:41:16;20.17;;;9.27;;
41711;SDS011;27399;51.516;13.670;2022-10-17T05:43:42;26.92;;;10.43;;
41711;SDS011;27399;51.516;13.670;2022-10-17T05:46:08;23.02;;;9.45;;
41711;SDS011;27399;51.516;13.670;2022-10-17T05:48:34;18.83;;;8.88;;
41711;SDS011;27399;51.516;13.670;2022-10-17T05:51:02;16.85;;;7.82;;
41711;SDS011;27399;51.516;13.670;2022-10-17T05:53:30;18.55;;;7.78;;
41711;SDS011;27399;51.516;13.670;2022-10-17T05:55:58;17.25;;;7.65;;
41711;SDS011;27399;51.516;13.670;2022-10-17T05:58:25;19.92;;;8.98;;
41711;SDS011;27399;51.516;13.670;2022-10-17T06:00:51;32.28;;;8.13;;
41711;SDS011;27399;51.516;13.670;2022-10-17T06:03:21;27.52;;;10.13;;
41711;SDS011;27399;51.516;13.670;2022-10-17T06:05:46;33.78;;;10.30;;
41711;SDS011;27399;51.516;13.670;2022-10-17T06:08:12;24.50;;;9.55;;
41711;SDS011;27399;51.516;13.670;2022-10-17T06:10:38;25.17;;;10.60;;
41711;SDS011;27399;51.516;13.670;2022-10-17T06:13:03;20.90;;;10.65;;
41711;SDS011;27399;51.516;13.670;2022-10-17T06:15:29;23.55;;;11.63;;
41711;SDS011;27399;51.516;13.670;2022-10-17T06:17:54;26.20;;;12.23;;
41711;SDS011;27399;51.516;13.670;2022-10-17T06:20:20;27.58;;;12.27;;
41711;SDS011;27399;51.516;13.670;2022-10-17T06:22:46;30.17;;;13.10;;
41711;SDS011;27399;51.516;13.670;2022-10-17T06:25:11;20.00;;;10.50;;
41711;SDS011;27399;51.516;13.670;2022-10-17T06:27:37;31.23;;;11.98;;
41711;SDS011;27399;51.516;13.670;2022-10-17T06:30:03;26.30;;;11.65;;
41711;SDS011;27399;51.516;13.670;2022-10-17T06:32:29;29.35;;;13.43;;
41711;SDS011;27399;51.516;13.670;2022-10-17T06:34:54;31.85;;;15.50;;
41711;SDS011;27399;51.516;13.670;2022-10-17T06:37:20;21.73;;;11.95;;
41711;SDS011;27399;51.516;13.670;2022-10-17T06:39:45;31.25;;;14.40;;
41711;SDS011;27399;51.516;13.670;2022-10-17T06:42:11;31.60;;;15.75;;
41711;SDS011;27399;51.516;13.670;2022-10-17T06:44:37;28.27;;;13.93;;
41711;SDS011;27399;51.516;13.670;2022-10-17T06:47:04;24.50;;;12.63;;
41711;SDS011;27399;51.516;13.670;2022-10-17T06:49:29;31.60;;;16.40;;
41711;SDS011;27399;51.516;13.670;2022-10-17T06:51:56;26.17;;;12.85;;
41711;SDS011;27399;51.516;13.670;2022-10-17T06:54:21;22.73;;;13.40;;
41711;SDS011;27399;51.516;13.670;2022-10-17T06:56:47;25.20;;;14.35;;
41711;SDS011;27399;51.516;13.670;2022-10-17T06:59:13;27.30;;;16.80;;
41711;SDS011;27399;51.516;13.670;2022-10-17T07:01:39;33.53;;;17.23;;
41711;SDS011;27399;51.516;13.670;2022-10-17T07:04:05;26.52;;;15.38;;
41711;SDS011;27399;51.516;13.670;2022-10-17T07:06:30;33.75;;;16.13;;
41711;SDS011;27399;51.516;13.670;2022-10-17T07:08:56;31.95;;;19.13;;
41711;SDS011;27399;51.516;13.670;2022-10-17T07:11:22;32.42;;;18.23;;
41711;SDS011;27399;51.516;13.670;2022-10-17T07:13:48;34.13;;;18.80;;
41711;SDS011;27399;51.516;13.670;2022-10-17T07:16:14;31.73;;;16.60;;
41711;SDS011;27399;51.516;13.670;2022-10-17T07:18:41;30.15;;;17.95;;
41711;SDS011;27399;51.516;13.670;2022-10-17T07:21:07;31.02;;;17.63;;
41711;SDS011;27399;51.516;13.670;2022-10-17T07:23:34;34.42;;;19.90;;
41711;SDS011;27399;51.516;13.670;2022-10-17T07:26:02;37.03;;;17.58;;
41711;SDS011;27399;51.516;13.670;2022-10-17T07:28:32;31.85;;;18.52;;
41711;SDS011;27399;51.516;13.670;2022-10-17T07:31:03;34.33;;;19.98;;
41711;SDS011;27399;51.516;13.670;2022-10-17T07:33:33;34.15;;;19.95;;
41711;SDS011;27399;51.516;13.670;2022-10-17T07:35:59;36.63;;;18.65;;
41711;SDS011;27399;51.516;13.670;2022-10-17T07:38:26;30.33;;;19.25;;
41711;SDS011;27399;51.516;13.670;2022-10-17T07:40:59;30.80;;;17.35;;
41711;SDS011;27399;51.516;13.670;2022-10-17T07:43:26;29.27;;;17.23;;
41711;SDS011;27399;51.516;13.670;2022-10-17T07:45:53;33.13;;;18.60;;
41711;SDS011;27399;51.516;13.670;2022-10-17T07:48:20;29.35;;;17.65;;
41711;SDS011;27399;51.516;13.670;2022-10-17T07:50:46;27.98;;;17.52;;
41711;SDS011;27399;51.516;13.670;2022-10-17T07:53:12;39.90;;;19.38;;
41711;SDS011;27399;51.516;13.670;2022-10-17T07:55:39;29.90;;;18.15;;
41711;SDS011;27399;51.516;13.670;2022-10-17T07:58:05;26.25;;;17.55;;
41711;SDS011;27399;51.516;13.670;2022-10-17T08:00:31;33.60;;;18.15;;
41711;SDS011;27399;51.516;13.670;2022-10-17T08:02:57;26.00;;;16.35;;
41711;SDS011;27399;51.516;13.670;2022-10-17T08:05:23;29.20;;;17.52;;
41711;SDS011;27399;51.516;13.670;2022-10-17T08:07:49;29.73;;;17.80;;
41711;SDS011;27399;51.516;13.670;2022-10-17T08:10:14;25.85;;;15.88;;
41711;SDS011;27399;51.516;13.670;2022-10-17T08:12:41;29.58;;;17.48;;
41711;SDS011;27399;51.516;13.670;2022-10-17T08:15:07;23.27;;;16.23;;
41711;SDS011;27399;51.516;13.670;2022-10-17T08:17:35;28.98;;;17.98;;
41711;SDS011;27399;51.516;13.670;2022-10-17T08:20:02;24.92;;;15.88;;
41711;SDS011;27399;51.516;13.670;2022-10-17T08:22:30;28.60;;;16.63;;
41711;SDS011;27399;51.516;13.670;2022-10-17T08:24:55;23.20;;;15.35;;
41711;SDS011;27399;51.516;13.670;2022-10-17T08:27:21;22.80;;;15.27;;
41711;SDS011;27399;51.516;13.670;2022-10-17T08:29:51;27.88;;;16.25;;
41711;SDS011;27399;51.516;13.670;2022-10-17T08:32:21;26.02;;;16.10;;
41711;SDS011;27399;51.516;13.670;2022-10-17T08:34:50;24.75;;;16.23;;
41711;SDS011;27399;51.516;13.670;2022-10-17T08:37:16;23.60;;;15.32;;
41711;SDS011;27399;51.516;13.670;2022-10-17T08:39:41;28.77;;;16.65;;
41711;SDS011;27399;51.516;13.670;2022-10-17T08:42:13;27.98;;;16.67;;
41711;SDS011;27399;51.516;13.670;2022-10-17T08:47:43;26.92;;;15.18;;
41711;SDS011;27399;51.516;13.670;2022-10-17T08:50:13;28.05;;;16.60;;
41711;SDS011;27399;51.516;13.670;2022-10-17T08:55:19;25.95;;;16.17;;
41711;SDS011;27399;51.516;13.670;2022-10-17T08:57:47;24.50;;;14.43;;
41711;SDS011;27399;51.516;13.670;2022-10-17T09:00:17;21.92;;;14.65;;
41711;SDS011;27399;51.516;13.670;2022-10-17T09:05:40;25.02;;;14.73;;
41711;SDS011;27399;51.516;13.670;2022-10-17T09:08:29;22.80;;;14.50;;
41711;SDS011;27399;51.516;13.670;2022-10-17T09:14:02;21.27;;;14.77;;
41711;SDS011;27399;51.516;13.670;2022-10-17T09:16:54;20.25;;;13.75;;
41711;SDS011;27399;51.516;13.670;2022-10-17T09:19:30;22.67;;;14.60;;
41711;SDS011;27399;51.516;13.670;2022-10-17T09:27:30;23.45;;;15.20;;
41711;SDS011;27399;51.516;13.670;2022-10-17T09:30:01;23.35;;;15.65;;
41711;SDS011;27399;51.516;13.670;2022-10-17T09:32:44;22.70;;;15.10;;
41711;SDS011;27399;51.516;13.670;2022-10-17T09:35:14;30.02;;;14.43;;
41711;SDS011;27399;51.516;13.670;2022-10-17T09:37:40;26.33;;;14.63;;
41711;SDS011;27399;51.516;13.670;2022-10-17T09:40:07;20.63;;;13.00;;
41711;SDS011;27399;51.516;13.670;2022-10-17T09:42:40;19.17;;;12.65;;
41711;SDS011;27399;51.516;13.670;2022-10-17T09:47:47;20.20;;;12.07;;
41711;SDS011;27399;51.516;13.670;2022-10-17T09:50:25;19.65;;;11.70;;
41711;SDS011;27399;51.516;13.670;2022-10-17T09:52:59;17.27;;;12.13;;
41711;SDS011;27399;51.516;13.670;2022-10-17T09:55:40;16.98;;;12.00;;
41711;SDS011;27399;51.516;13.670;2022-10-17T09:58:08;20.77;;;12.43;;
41711;SDS011;27399;51.516;13.670;2022-10-17T10:04:09;19.50;;;12.10;;
41711;SDS011;27399;51.516;13.670;2022-10-17T10:06:39;19.65;;;10.85;;
41711;SDS011;27399;51.516;13.670;2022-10-17T10:09:19;16.15;;;11.68;;
41711;SDS011;27399;51.516;13.670;2022-10-17T10:11:50;16.27;;;11.70;;
41711;SDS011;27399;51.516;13.670;2022-10-17T10:14:20;22.88;;;12.43;;
41711;SDS011;27399;51.516;13.670;2022-10-17T10:16:53;17.50;;;10.90;;
41711;SDS011;27399;51.516;13.670;2022-10-17T10:19:29;17.83;;;10.50;;
41711;SDS011;27399;51.516;13.670;2022-10-17T10:22:07;17.33;;;10.85;;
41711;SDS011;27399;51.516;13.670;2022-10-17T10:24:40;14.73;;;10.05;;
41711;SDS011;27399;51.516;13.670;2022-10-17T10:27:09;14.40;;;9.80;;
41711;SDS011;27399;51.516;13.670;2022-10-17T10:29:42;15.77;;;10.23;;
41711;SDS011;27399;51.516;13.670;2022-10-17T10:32:27;14.80;;;9.65;;
41711;SDS011;27399;51.516;13.670;2022-10-17T10:34:56;11.98;;;9.60;;
41711;SDS011;27399;51.516;13.670;2022-10-17T10:37:41;20.13;;;10.18;;
41711;SDS011;27399;51.516;13.670;2022-10-17T10:40:19;18.15;;;9.55;;
41711;SDS011;27399;51.516;13.670;2022-10-17T10:42:58;19.25;;;10.90;;
41711;SDS011;27399;51.516;13.670;2022-10-17T10:45:28;16.40;;;9.55;;
41711;SDS011;27399;51.516;13.670;2022-10-17T10:48:49;14.73;;;9.88;;
41711;SDS011;27399;51.516;13.670;2022-10-17T10:51:03;15.68;;;8.77;;
41711;SDS011;27399;51.516;13.670;2022-10-17T10:56:21;12.55;;;8.50;;
41711;SDS011;27399;51.516;13.670;2022-10-17T11:04:16;11.85;;;8.30;;
41711;SDS011;27399;51.516;13.670;2022-10-17T11:07:25;12.55;;;8.80;;
41711;SDS011;27399;51.516;13.670;2022-10-17T11:10:22;12.65;;;8.60;;
41711;SDS011;27399;51.516;13.670;2022-10-17T11:13:10;10.68;;;8.32;;
41711;SDS011;27399;51.516;13.670;2022-10-17T11:21:14;12.18;;;8.77;;
41711;SDS011;27399;51.516;13.670;2022-10-17T11:23:47;11.68;;;8.05;;
41711;SDS011;27399;51.516;13.670;2022-10-17T11:26:25;13.65;;;8.52;;
41711;SDS011;27399;51.516;13.670;2022-10-17T11:28:56;14.68;;;8.50;;
41711;SDS011;27399;51.516;13.670;2022-10-17T11:31:25;15.80;;;8.82;;
41711;SDS011;27399;51.516;13.670;2022-10-17T11:36:28;14.43;;;8.38;;
41711;SDS011;27399;51.516;13.670;2022-10-17T11:41:41;14.48;;;8.00;;
41711;SDS011;27399;51.516;13.670;2022-10-17T11:44:17;11.85;;;7.53;;
41711;SDS011;27399;51.516;13.670;2022-10-17T11:46:47;18.70;;;9.07;;
41711;SDS011;27399;51.516;13.670;2022-10-17T11:49:36;14.68;;;7.75;;
41711;SDS011;27399;51.516;13.670;2022-10-17T11:55:10;11.52;;;7.70;;
41711;SDS011;27399;51.516;13.670;2022-10-17T12:00:59;14.05;;;8.10;;
41711;SDS011;27399;51.516;13.670;2022-10-17T12:06:30;13.60;;;7.35;;
41711;SDS011;27399;51.516;13.670;2022-10-17T12:12:05;13.55;;;8.18;;
41711;SDS011;27399;51.516;13.670;2022-10-17T12:14:41;14.20;;;8.00;;
41711;SDS011;27399;51.516;13.670;2022-10-17T12:20:15;15.13;;;8.50;;
41711;SDS011;27399;51.516;13.670;2022-10-17T12:22:45;11.73;;;8.38;;
41711;SDS011;27399;51.516;13.670;2022-10-17T12:25:16;12.68;;;7.07;;
41711;SDS011;27399;51.516;13.670;2022-10-17T12:27:46;10.95;;;7.55;;
41711;SDS011;27399;51.516;13.670;2022-10-17T12:30:23;15.07;;;7.75;;
41711;SDS011;27399;51.516;13.670;2022-10-17T12:35:28;10.77;;;7.43;;
41711;SDS011;27399;51.516;13.670;2022-10-17T12:37:58;12.23;;;7.30;;
41711;SDS011;27399;51.516;13.670;2022-10-17T12:43:01;11.38;;;8.05;;
41711;SDS011;27399;51.516;13.670;2022-10-17T12:45:49;12.05;;;7.40;;
41711;SDS011;27399;51.516;13.670;2022-10-17T12:51:10;12.75;;;7.85;;
41711;SDS011;27399;51.516;13.670;2022-10-17T12:56:33;13.25;;;7.65;;
41711;SDS011;27399;51.516;13.670;2022-10-17T12:59:20;12.68;;;7.53;;
41711;SDS011;27399;51.516;13.670;2022-10-17T13:01:54;12.00;;;8.48;;
41711;SDS011;27399;51.516;13.670;2022-10-17T13:04:23;10.85;;;7.80;;
41711;SDS011;27399;51.516;13.670;2022-10-17T13:06:52;13.90;;;8.57;;
41711;SDS011;27399;51.516;13.670;2022-10-17T13:09:32;15.48;;;8.07;;
41711;SDS011;27399;51.516;13.670;2022-10-17T13:12:03;16.83;;;8.15;;
41711;SDS011;27399;51.516;13.670;2022-10-17T13:14:35;15.07;;;9.18;;
41711;SDS011;27399;51.516;13.670;2022-10-17T13:17:05;12.03;;;8.33;;
41711;SDS011;27399;51.516;13.670;2022-10-17T13:19:44;12.68;;;7.40;;
41711;SDS011;27399;51.516;13.670;2022-10-17T13:24:49;13.98;;;8.25;;
41711;SDS011;27399;51.516;13.670;2022-10-17T13:27:20;15.38;;;8.10;;
41711;SDS011;27399;51.516;13.670;2022-10-17T13:29:52;12.15;;;8.73;;
41711;SDS011;27399;51.516;13.670;2022-10-17T13:32:20;13.15;;;7.15;;
41711;SDS011;27399;51.516;13.670;2022-10-17T13:35:03;14.07;;;8.05;;
41711;SDS011;27399;51.516;13.670;2022-10-17T13:37:34;52.28;;;9.75;;
41711;SDS011;27399;51.516;13.670;2022-10-17T13:40:01;16.02;;;8.50;;
41711;SDS011;27399;51.516;13.670;2022-10-17T13:42:28;11.32;;;7.43;;
41711;SDS011;27399;51.516;13.670;2022-10-17T13:45:00;17.23;;;9.23;;
41711;SDS011;27399;51.516;13.670;2022-10-17T13:47:27;17.80;;;9.77;;
41711;SDS011;27399;51.516;13.670;2022-10-17T13:49:56;16.15;;;9.02;;
41711;SDS011;27399;51.516;13.670;2022-10-17T13:52:24;13.70;;;8.60;;
41711;SDS011;27399;51.516;13.670;2022-10-17T13:54:52;18.75;;;9.77;;
41711;SDS011;27399;51.516;13.670;2022-10-17T13:57:20;18.80;;;9.32;;
41711;SDS011;27399;51.516;13.670;2022-10-17T13:59:51;13.57;;;9.43;;
41711;SDS011;27399;51.516;13.670;2022-10-17T14:02:21;15.68;;;8.85;;
41711;SDS011;27399;51.516;13.670;2022-10-17T14:04:59;13.73;;;8.87;;
41711;SDS011;27399;51.516;13.670;2022-10-17T14:07:28;40.95;;;8.77;;
41711;SDS011;27399;51.516;13.670;2022-10-17T14:09:59;14.73;;;8.80;;
41711;SDS011;27399;51.516;13.670;2022-10-17T14:12:25;17.40;;;9.13;;
41711;SDS011;27399;51.516;13.670;2022-10-17T14:14:52;14.85;;;9.77;;
41711;SDS011;27399;51.516;13.670;2022-10-17T14:17:25;17.48;;;9.45;;
41711;SDS011;27399;51.516;13.670;2022-10-17T14:19:54;16.10;;;9.23;;
41711;SDS011;27399;51.516;13.670;2022-10-17T14:22:26;15.95;;;9.43;;
41711;SDS011;27399;51.516;13.670;2022-10-17T14:24:53;19.80;;;10.18;;
41711;SDS011;27399;51.516;13.670;2022-10-17T14:27:30;22.70;;;10.38;;
41711;SDS011;27399;51.516;13.670;2022-10-17T14:30:05;21.88;;;10.48;;
41711;SDS011;27399;51.516;13.670;2022-10-17T14:32:55;15.63;;;9.82;;
41711;SDS011;27399;51.516;13.670;2022-10-17T14:35:22;21.55;;;9.73;;
41711;SDS011;27399;51.516;13.670;2022-10-17T14:37:52;22.80;;;9.80;;
41711;SDS011;27399;51.516;13.670;2022-10-17T14:40:22;24.35;;;10.65;;
41711;SDS011;27399;51.516;13.670;2022-10-17T14:42:50;14.93;;;10.15;;
41711;SDS011;27399;51.516;13.670;2022-10-17T14:45:29;14.45;;;9.65;;
41711;SDS011;27399;51.516;13.670;2022-10-17T14:48:08;16.83;;;10.88;;
41711;SDS011;27399;51.516;13.670;2022-10-17T14:50:38;16.08;;;10.40;;
41711;SDS011;27399;51.516;13.670;2022-10-17T14:53:05;15.52;;;10.30;;
41711;SDS011;27399;51.516;13.670;2022-10-17T14:55:32;23.58;;;9.93;;
41711;SDS011;27399;51.516;13.670;2022-10-17T14:57:59;20.05;;;10.95;;
41711;SDS011;27399;51.516;13.670;2022-10-17T15:00:25;19.48;;;10.90;;
41711;SDS011;27399;51.516;13.670;2022-10-17T15:02:52;21.17;;;10.52;;
41711;SDS011;27399;51.516;13.670;2022-10-17T15:05:19;35.05;;;10.38;;
41711;SDS011;27399;51.516;13.670;2022-10-17T15:07:47;26.65;;;11.45;;
41711;SDS011;27399;51.516;13.670;2022-10-17T15:10:32;18.73;;;10.98;;
41711;SDS011;27399;51.516;13.670;2022-10-17T15:12:59;17.05;;;9.38;;
41711;SDS011;27399;51.516;13.670;2022-10-17T15:15:26;24.00;;;11.77;;
41711;SDS011;27399;51.516;13.670;2022-10-17T15:17:53;19.20;;;11.15;;
41711;SDS011;27399;51.516;13.670;2022-10-17T15:20:19;31.25;;;11.15;;
41711;SDS011;27399;51.516;13.670;2022-10-17T15:22:50;55.97;;;12.23;;
41711;SDS011;27399;51.516;13.670;2022-10-17T15:25:17;25.85;;;11.50;;
41711;SDS011;27399;51.516;13.670;2022-10-17T15:27:43;15.85;;;11.20;;
41711;SDS011;27399;51.516;13.670;2022-10-17T15:30:19;30.33;;;12.43;;
41711;SDS011;27399;51.516;13.670;2022-10-17T15:32:47;17.25;;;11.25;;
41711;SDS011;27399;51.516;13.670;2022-10-17T15:35:13;20.45;;;12.45;;
41711;SDS011;27399;51.516;13.670;2022-10-17T15:37:39;20.52;;;12.73;;
41711;SDS011;27399;51.516;13.670;2022-10-17T15:40:08;22.80;;;12.95;;
41711;SDS011;27399;51.516;13.670;2022-10-17T15:42:39;18.80;;;11.68;;
41711;SDS011;27399;51.516;13.670;2022-10-17T15:45:05;15.90;;;10.95;;
41711;SDS011;27399;51.516;13.670;2022-10-17T15:47:31;22.55;;;11.18;;
41711;SDS011;27399;51.516;13.670;2022-10-17T15:49:58;27.70;;;12.40;;
41711;SDS011;27399;51.516;13.670;2022-10-17T15:52:25;33.80;;;12.55;;
41711;SDS011;27399;51.516;13.670;2022-10-17T15:54:52;36.10;;;13.20;;
41711;SDS011;27399;51.516;13.670;2022-10-17T15:57:22;25.73;;;13.05;;
41711;SDS011;27399;51.516;13.670;2022-10-17T15:59:54;20.48;;;12.32;;
41711;SDS011;27399;51.516;13.670;2022-10-17T16:02:22;23.77;;;13.48;;
41711;SDS011;27399;51.516;13.670;2022-10-17T16:04:49;30.83;;;13.27;;
41711;SDS011;27399;51.516;13.670;2022-10-17T16:07:16;28.25;;;13.25;;
41711;SDS011;27399;51.516;13.670;2022-10-17T16:09:44;22.15;;;11.85;;
41711;SDS011;27399;51.516;13.670;2022-10-17T16:12:12;19.88;;;13.13;;
41711;SDS011;27399;51.516;13.670;2022-10-17T16:14:41;20.83;;;13.98;;
41711;SDS011;27399;51.516;13.670;2022-10-17T16:17:13;30.90;;;13.82;;
41711;SDS011;27399;51.516;13.670;2022-10-17T16:19:41;36.42;;;14.63;;